Time;durP1;ratioP1;P1;durP2;ratioP2;P2;SDS_P1;SDS_P2;PMS_P1;PMS_P2;Temp;Humidity;BMP_temperature;BMP_pressure;BME280_temperature;BME280_humidity;BME280_pressure;Samples;Min_cycle;Max_cycle;Signal;HPM_P1;HPM_P2
2023/07/18 00:02:00;;;;;;;2.53;2.33;;;17.00;99.90;;;;;;5087012;28;20193;-66
2023/07/18 00:04:28;;;;;;;3.20;2.20;;;16.90;99.90;;;;;;5074922;28;20206;-65
2023/07/18 00:06:54;;;;;;;6.03;2.60;;;16.90;99.90;;;;;;5086278;28;20190;-67
2023/07/18 00:09:20;;;;;;;3.17;2.03;;;17.00;99.90;;;;;;5072926;28;20414;-66
2023/07/18 00:11:46;;;;;;;3.10;1.97;;;16.90;99.90;;;;;;5085108;28;20162;-66
2023/07/18 00:14:12;;;;;;;3.50;2.83;;;16.90;99.90;;;;;;5074700;28;20992;-66
2023/07/18 00:16:38;;;;;;;2.50;2.30;;;16.80;99.90;;;;;;5093075;28;20212;-66
2023/07/18 00:19:03;;;;;;;4.53;2.00;;;16.80;99.90;;;;;;5083539;28;20408;-67
2023/07/18 00:21:29;;;;;;;3.57;2.37;;;16.80;99.90;;;;;;5084317;28;20269;-66
2023/07/18 00:23:55;;;;;;;3.43;2.67;;;16.70;99.90;;;;;;5086534;28;20655;-66
2023/07/18 00:26:24;;;;;;;4.03;2.80;;;16.70;99.90;;;;;;5082252;28;20185;-67
2023/07/18 00:28:53;;;;;;;6.37;2.83;;;16.70;99.90;;;;;;5092729;28;20417;-66
2023/07/18 00:31:19;;;;;;;3.53;2.43;;;16.70;99.90;;;;;;5087979;28;20412;-66
2023/07/18 00:33:44;;;;;;;4.50;3.10;;;16.70;99.90;;;;;;5081174;28;20453;-66
2023/07/18 00:36:10;;;;;;;3.37;2.27;;;16.70;99.90;;;;;;5072202;28;20171;-66
2023/07/18 00:38:35;;;;;;;3.80;2.80;;;16.60;99.90;;;;;;5072281;28;20591;-67
2023/07/18 00:41:04;;;;;;;3.40;2.10;;;16.60;99.90;;;;;;5072054;28;20200;-67
2023/07/18 00:43:33;;;;;;;2.80;2.10;;;16.60;99.90;;;;;;5082011;28;20430;-66
2023/07/18 00:46:01;;;;;;;4.30;2.20;;;16.60;99.90;;;;;;5092195;28;20416;-66
2023/07/18 00:48:28;;;;;;;4.40;2.33;;;16.50;99.90;;;;;;5072962;28;20442;-66
2023/07/18 00:50:53;;;;;;;3.33;2.10;;;16.40;99.90;;;;;;5071781;28;20416;-65
2023/07/18 00:53:22;;;;;;;4.93;2.30;;;16.40;99.90;;;;;;5072950;28;20521;-67
2023/07/18 00:55:48;;;;;;;3.13;2.60;;;16.50;99.90;;;;;;5078743;28;20169;-66
2023/07/18 00:58:14;;;;;;;4.10;2.50;;;16.40;99.90;;;;;;5092093;28;20415;-66
2023/07/18 01:00:40;;;;;;;3.50;2.00;;;16.30;99.90;;;;;;5092125;28;20453;-66
2023/07/18 01:03:06;;;;;;;3.20;2.90;;;16.40;99.90;;;;;;5080963;28;20968;-66
2023/07/18 01:05:33;;;;;;;4.20;2.90;;;16.30;99.90;;;;;;5079983;28;20606;-66
2023/07/18 01:08:00;;;;;;;3.30;2.67;;;16.20;99.90;;;;;;5071821;28;20417;-67
2023/07/18 01:10:27;;;;;;;3.50;2.77;;;16.30;99.90;;;;;;5085694;28;20423;-66
2023/07/18 01:12:55;;;;;;;4.13;2.23;;;16.30;99.90;;;;;;5071392;28;20414;-67
2023/07/18 01:15:21;;;;;;;9.30;3.20;;;16.10;99.90;;;;;;5071167;28;20515;-66
2023/07/18 01:17:48;;;;;;;3.80;2.23;;;16.10;99.90;;;;;;5078713;28;20413;-67
2023/07/18 01:20:18;;;;;;;3.43;2.23;;;16.10;99.90;;;;;;5080136;28;20468;-66
2023/07/18 01:22:45;;;;;;;2.10;1.90;;;16.00;99.90;;;;;;5085970;28;20419;-66
2023/07/18 01:25:12;;;;;;;2.10;1.90;;;16.10;99.90;;;;;;5089166;28;20441;-67
2023/07/18 01:27:38;;;;;;;8.30;2.50;;;16.00;99.90;;;;;;5085457;28;20415;-67
2023/07/18 01:30:05;;;;;;;3.00;2.70;;;16.00;99.90;;;;;;5079896;28;20450;-66
2023/07/18 01:32:31;;;;;;;3.30;2.80;;;16.00;99.90;;;;;;5091398;28;20423;-66
2023/07/18 01:34:59;;;;;;;3.07;2.77;;;16.00;99.90;;;;;;5091130;28;20455;-67
2023/07/18 01:37:25;;;;;;;5.50;2.90;;;15.90;99.90;;;;;;5089134;28;20573;-65
2023/07/18 01:39:50;;;;;;;3.37;2.87;;;15.90;99.90;;;;;;5083528;28;20925;-66
2023/07/18 01:42:16;;;;;;;2.93;2.70;;;15.90;99.90;;;;;;5061550;28;20261;-66
2023/07/18 01:44:43;;;;;;;5.00;3.53;;;15.90;99.90;;;;;;5084455;28;20202;-67
2023/07/18 01:47:09;;;;;;;2.97;2.70;;;15.90;99.90;;;;;;5081921;28;20408;-66
2023/07/18 01:49:35;;;;;;;5.33;2.80;;;15.80;99.90;;;;;;5071434;28;20797;-66
2023/07/18 01:52:01;;;;;;;4.43;3.33;;;16.00;99.90;;;;;;5085332;28;20185;-65
2023/07/18 01:54:29;;;;;;;6.93;2.87;;;15.80;99.90;;;;;;5071778;28;20527;-66
2023/07/18 01:56:54;;;;;;;4.83;2.80;;;15.70;99.90;;;;;;5075247;28;20892;-65
2023/07/18 01:59:21;;;;;;;7.47;3.07;;;15.60;99.90;;;;;;5079690;28;20425;-66
2023/07/18 02:01:47;;;;;;;4.67;2.83;;;15.60;99.90;;;;;;5085055;28;20219;-65
2023/07/18 02:04:13;;;;;;;2.63;2.43;;;15.50;99.90;;;;;;5070920;28;20432;-65
2023/07/18 02:06:40;;;;;;;3.20;2.30;;;15.60;99.90;;;;;;5078447;28;20420;-67
2023/07/18 02:09:06;;;;;;;4.10;2.80;;;15.50;99.90;;;;;;5075110;28;20500;-64
2023/07/18 02:11:32;;;;;;;3.07;2.70;;;15.50;99.90;;;;;;5087601;28;20412;-65
2023/07/18 02:13:58;;;;;;;4.30;2.63;;;15.70;99.90;;;;;;5087685;28;20539;-65
2023/07/18 02:16:24;;;;;;;2.80;2.43;;;15.70;99.90;;;;;;5080886;28;20184;-66
2023/07/18 02:18:49;;;;;;;3.73;3.33;;;15.40;99.90;;;;;;5081018;28;20205;-66
2023/07/18 02:21:15;;;;;;;3.83;3.10;;;15.50;99.90;;;;;;5081631;28;20210;-66
2023/07/18 02:23:40;;;;;;;3.93;3.63;;;15.40;99.90;;;;;;5083374;28;20205;-66
2023/07/18 02:26:06;;;;;;;4.60;2.77;;;15.30;99.90;;;;;;5086277;28;20253;-66
2023/07/18 02:28:31;;;;;;;4.57;2.90;;;15.30;99.90;;;;;;5085897;28;20592;-66
2023/07/18 02:30:57;;;;;;;4.10;2.77;;;15.20;99.90;;;;;;5095323;28;20240;-66
2023/07/18 02:33:23;;;;;;;3.07;2.77;;;15.10;99.90;;;;;;5077186;28;20694;-66
2023/07/18 02:35:50;;;;;;;4.13;2.70;;;15.00;99.90;;;;;;5091423;28;20497;-67
2023/07/18 02:38:15;;;;;;;3.63;2.87;;;15.00;99.90;;;;;;5097341;28;20598;-66
2023/07/18 02:40:44;;;;;;;4.00;3.27;;;14.90;99.90;;;;;;5084919;28;20555;-65
2023/07/18 02:43:10;;;;;;;3.60;3.00;;;14.90;99.90;;;;;;5091645;28;20176;-66
2023/07/18 02:45:35;;;;;;;4.87;3.40;;;14.90;99.90;;;;;;5077190;28;20894;-66
2023/07/18 02:48:01;;;;;;;4.97;3.63;;;14.90;99.90;;;;;;5073279;28;20241;-65
2023/07/18 02:50:27;;;;;;;3.13;2.83;;;14.80;99.90;;;;;;5096345;28;20230;-65
2023/07/18 02:52:52;;;;;;;4.03;2.77;;;14.80;99.90;;;;;;5097188;28;20192;-66
2023/07/18 02:55:18;;;;;;;2.77;2.57;;;14.70;99.90;;;;;;5078002;28;20194;-66
2023/07/18 02:57:43;;;;;;;4.30;3.60;;;14.70;99.90;;;;;;5096573;28;20174;-65
2023/07/18 03:00:26;;;;;;;3.50;2.73;;;14.70;99.90;;;;;;5075052;28;20778;-65
2023/07/18 03:02:52;;;;;;;3.60;3.10;;;14.60;99.90;;;;;;5077709;28;20177;-65
2023/07/18 03:05:19;;;;;;;3.93;3.33;;;14.60;99.90;;;;;;5091735;28;20983;-65
2023/07/18 03:07:46;;;;;;;3.60;3.27;;;14.60;99.90;;;;;;5059955;28;20507;-65
2023/07/18 03:10:13;;;;;;;3.90;3.40;;;14.50;99.90;;;;;;5092174;28;20421;-65
2023/07/18 03:12:40;;;;;;;3.63;3.20;;;14.50;99.90;;;;;;5089187;28;20416;-65
2023/07/18 03:15:08;;;;;;;3.87;3.00;;;14.50;99.90;;;;;;5085368;28;20459;-67
2023/07/18 03:17:34;;;;;;;4.23;3.07;;;14.40;99.90;;;;;;5077886;28;20419;-66
2023/07/18 03:19:59;;;;;;;4.63;3.70;;;14.40;99.90;;;;;;5077514;28;20479;-64
2023/07/18 03:22:25;;;;;;;5.33;3.50;;;14.40;99.90;;;;;;5091947;28;20819;-65
2023/07/18 03:24:54;;;;;;;5.90;3.47;;;14.40;99.90;;;;;;5077378;28;20198;-66
2023/07/18 03:27:19;;;;;;;4.40;3.37;;;14.40;99.90;;;;;;5077528;28;20175;-65
2023/07/18 03:29:45;;;;;;;4.40;4.00;;;14.40;99.90;;;;;;5082147;28;20499;-67
2023/07/18 03:32:10;;;;;;;6.53;5.90;;;14.40;99.90;;;;;;5085272;28;20178;-68
2023/07/18 03:34:36;;;;;;;3.90;3.60;;;14.50;99.90;;;;;;5082734;28;20217;-66
2023/07/18 03:37:02;;;;;;;8.03;4.93;;;14.50;99.90;;;;;;5080200;28;20651;-66
2023/07/18 03:39:27;;;;;;;5.40;4.50;;;14.50;99.90;;;;;;5077094;28;20186;-65
2023/07/18 03:41:53;;;;;;;4.63;4.23;;;14.50;99.90;;;;;;5083881;28;20173;-66
2023/07/18 03:44:19;;;;;;;9.23;5.30;;;14.50;99.90;;;;;;5078744;28;20684;-66
2023/07/18 03:46:44;;;;;;;5.07;4.30;;;14.50;99.90;;;;;;5085951;28;20564;-66
2023/07/18 03:49:10;;;;;;;7.90;4.80;;;14.50;99.90;;;;;;5075986;28;20181;-65
2023/07/18 03:51:36;;;;;;;18.63;6.20;;;14.50;99.90;;;;;;5086094;28;20182;-66
2023/07/18 03:54:03;;;;;;;6.63;5.03;;;14.60;99.90;;;;;;5082011;28;20217;-66
2023/07/18 03:56:30;;;;;;;5.50;4.67;;;14.60;99.90;;;;;;5080699;28;20304;-66
2023/07/18 03:58:56;;;;;;;7.67;4.77;;;14.60;99.90;;;;;;5088964;28;20932;-66
2023/07/18 04:01:22;;;;;;;8.50;4.07;;;14.60;99.90;;;;;;5080288;28;20455;-66
2023/07/18 04:03:50;;;;;;;5.07;4.53;;;14.70;99.90;;;;;;5094338;28;20198;-66
2023/07/18 04:06:15;;;;;;;5.23;3.97;;;14.70;99.90;;;;;;5079442;28;20431;-65
2023/07/18 04:08:42;;;;;;;4.73;4.23;;;14.70;99.90;;;;;;5087175;28;20420;-66
2023/07/18 04:11:08;;;;;;;4.40;3.87;;;14.80;99.90;;;;;;5076858;28;20547;-67
2023/07/18 04:13:34;;;;;;;6.27;4.53;;;14.80;99.90;;;;;;5091671;28;20433;-66
2023/07/18 04:15:59;;;;;;;4.83;3.30;;;14.90;99.90;;;;;;5090612;28;20256;-67
2023/07/18 04:18:25;;;;;;;6.30;4.10;;;14.90;99.90;;;;;;5080518;28;20242;-65
2023/07/18 04:20:59;;;;;;;8.00;3.80;;;15.00;99.90;;;;;;5093168;28;20194;-65
2023/07/18 04:23:25;;;;;;;5.10;4.57;;;15.00;99.90;;;;;;5081467;28;20597;-66
2023/07/18 04:25:59;;;;;;;6.50;4.27;;;15.10;99.90;;;;;;5082648;28;20448;-65
2023/07/18 04:28:27;;;;;;;4.70;3.77;;;15.20;99.90;;;;;;5073720;28;20194;-66
2023/07/18 04:30:53;;;;;;;4.50;3.97;;;15.20;99.90;;;;;;5079429;28;20412;-66
2023/07/18 04:33:19;;;;;;;6.53;4.50;;;15.30;99.90;;;;;;5083436;28;20954;-67
2023/07/18 04:35:45;;;;;;;6.17;4.33;;;15.70;99.90;;;;;;5113859;22;20862;-72
2023/07/18 04:38:12;;;;;;;5.40;4.10;;;16.00;99.90;;;;;;5093504;28;20171;-71
2023/07/18 04:40:37;;;;;;;5.40;4.87;;;16.20;99.90;;;;;;5085518;28;20448;-71
2023/07/18 04:43:03;;;;;;;5.33;3.40;;;16.50;99.90;;;;;;5090120;28;20407;-71
2023/07/18 04:45:31;;;;;;;5.70;3.67;;;16.90;99.90;;;;;;5090728;28;20288;-70
2023/07/18 04:47:56;;;;;;;3.57;3.23;;;16.90;99.90;;;;;;5087194;28;20165;-70
2023/07/18 04:50:22;;;;;;;4.43;3.80;;;16.80;99.90;;;;;;5092588;28;20484;-70
2023/07/18 04:52:47;;;;;;;4.67;2.87;;;16.70;99.90;;;;;;5088029;28;20555;-72
2023/07/18 04:55:15;;;;;;;4.77;3.03;;;16.70;99.90;;;;;;5091413;28;20238;-72
2023/07/18 04:57:41;;;;;;;3.23;2.93;;;16.60;99.90;;;;;;5089057;28;20658;-71
2023/07/18 05:00:07;;;;;;;6.87;4.03;;;16.70;99.90;;;;;;5089180;28;20442;-71
2023/07/18 05:02:32;;;;;;;3.40;3.10;;;17.10;99.90;;;;;;5092968;28;20600;-72
2023/07/18 05:04:58;;;;;;;5.20;3.40;;;17.60;99.90;;;;;;5089257;28;20477;-72
2023/07/18 05:07:24;;;;;;;6.53;2.40;;;17.50;99.90;;;;;;5091911;28;20173;-72
2023/07/18 05:09:50;;;;;;;4.03;2.50;;;17.50;99.90;;;;;;5087995;28;20188;-72
2023/07/18 05:12:15;;;;;;;5.77;2.60;;;17.60;99.90;;;;;;5090483;28;20411;-71
2023/07/18 05:14:41;;;;;;;6.33;3.00;;;18.00;99.90;;;;;;5088323;28;20190;-71
2023/07/18 05:17:07;;;;;;;4.33;2.90;;;18.30;99.90;;;;;;5088085;28;20183;-71
2023/07/18 05:19:32;;;;;;;3.93;2.60;;;18.70;99.90;;;;;;5092231;28;20199;-72
2023/07/18 05:21:58;;;;;;;3.10;2.37;;;19.20;99.90;;;;;;5088712;28;20172;-72
2023/07/18 05:24:23;;;;;;;4.03;2.63;;;19.10;99.90;;;;;;5072826;28;20665;-72
2023/07/18 05:26:50;;;;;;;3.80;1.80;;;19.50;99.90;;;;;;5087707;28;20678;-72
2023/07/18 05:29:15;;;;;;;8.00;2.77;;;19.20;99.90;;;;;;5090237;28;20404;-71
2023/07/18 05:31:42;;;;;;;5.23;2.50;;;19.20;99.90;;;;;;5088594;28;20169;-72
2023/07/18 05:34:07;;;;;;;4.80;2.57;;;19.20;99.90;;;;;;5087869;28;20307;-72
2023/07/18 05:36:33;;;;;;;4.40;2.80;;;19.40;99.90;;;;;;5092425;28;20947;-73
2023/07/18 05:39:00;;;;;;;5.47;2.30;;;19.20;99.90;;;;;;5088311;28;20575;-71
2023/07/18 05:41:25;;;;;;;3.33;2.70;;;19.70;99.90;;;;;;5091098;28;20193;-71
2023/07/18 05:43:51;;;;;;;9.60;2.63;;;20.00;99.90;;;;;;5093868;28;20407;-70
2023/07/18 05:46:17;;;;;;;3.03;2.70;;;20.80;99.90;;;;;;5089946;28;20254;-71
2023/07/18 05:48:42;;;;;;;3.80;2.60;;;20.50;99.90;;;;;;5092952;28;20170;-72
2023/07/18 05:51:08;;;;;;;5.80;3.10;;;21.10;99.90;;;;;;5089644;28;20524;-71
2023/07/18 05:53:34;;;;;;;3.90;2.60;;;20.50;99.90;;;;;;5072293;28;20630;-71
2023/07/18 05:55:59;;;;;;;9.17;2.87;;;21.30;99.90;;;;;;5089261;28;20193;-72
2023/07/18 05:58:25;;;;;;;4.00;3.00;;;20.70;99.90;;;;;;5083654;28;20179;-71
2023/07/18 06:00:50;;;;;;;4.07;2.90;;;20.90;99.90;;;;;;5086316;28;20195;-70
2023/07/18 06:03:17;;;;;;;6.43;3.10;;;22.00;99.90;;;;;;5086839;28;20247;-71
2023/07/18 06:05:43;;;;;;;4.90;2.50;;;21.40;99.90;;;;;;5070376;28;20192;-71
2023/07/18 06:08:10;;;;;;;5.10;2.60;;;21.20;99.90;;;;;;5087421;28;20522;-71
2023/07/18 06:10:36;;;;;;;5.07;2.80;;;21.30;99.90;;;;;;5083536;28;20497;-72
2023/07/18 06:13:01;;;;;;;5.67;2.73;;;21.80;99.90;;;;;;5090068;28;20897;-72
2023/07/18 06:15:27;;;;;;;7.33;2.80;;;22.10;99.90;;;;;;5091512;28;20200;-70
2023/07/18 06:17:53;;;;;;;3.57;2.50;;;22.20;99.90;;;;;;5091234;28;20182;-71
2023/07/18 06:20:19;;;;;;;4.90;2.60;;;21.90;99.90;;;;;;5088086;28;20513;-71
2023/07/18 06:22:46;;;;;;;3.60;2.70;;;23.00;99.90;;;;;;5090486;28;20165;-71
2023/07/18 06:25:14;;;;;;;3.50;2.50;;;23.50;99.90;;;;;;5086870;28;20189;-72
2023/07/18 06:27:39;;;;;;;2.33;2.13;;;23.60;99.90;;;;;;5089564;28;20737;-72
2023/07/18 06:30:06;;;;;;;2.60;2.37;;;22.90;99.90;;;;;;5089895;28;20415;-71
2023/07/18 06:32:31;;;;;;;7.20;2.97;;;23.40;99.90;;;;;;5089004;28;20608;-69
2023/07/18 06:34:57;;;;;;;5.33;3.07;;;23.00;99.90;;;;;;5090893;28;20493;-69
2023/07/18 06:37:22;;;;;;;2.40;2.20;;;22.80;99.90;;;;;;5087964;28;20584;-70
2023/07/18 06:39:50;;;;;;;7.03;3.20;;;22.70;99.90;;;;;;5091387;28;20677;-71
2023/07/18 06:42:16;;;;;;;5.60;2.47;;;23.50;99.90;;;;;;5088242;28;20627;-70
2023/07/18 06:44:42;;;;;;;6.13;2.90;;;23.10;99.90;;;;;;5092389;28;20476;-71
2023/07/18 06:47:07;;;;;;;4.00;2.20;;;23.70;99.90;;;;;;5089470;28;20411;-71
2023/07/18 06:49:33;;;;;;;5.23;2.40;;;24.10;99.90;;;;;;5092577;28;20235;-71
2023/07/18 06:51:59;;;;;;;4.10;2.97;;;24.00;99.90;;;;;;5088509;28;20153;-71
2023/07/18 06:54:24;;;;;;;3.00;2.53;;;24.70;99.90;;;;;;5091142;28;20189;-71
2023/07/18 06:56:50;;;;;;;3.73;2.63;;;24.10;99.90;;;;;;5087653;28;20185;-71
2023/07/18 06:59:15;;;;;;;4.03;1.87;;;24.20;99.90;;;;;;5088604;28;20571;-72
2023/07/18 07:01:42;;;;;;;3.70;2.30;;;23.90;99.90;;;;;;5091746;28;20234;-71
2023/07/18 07:04:08;;;;;;;4.00;1.73;;;24.50;99.90;;;;;;5087981;28;20235;-71
2023/07/18 07:06:41;;;;;;;4.60;2.67;;;25.10;99.90;;;;;;5088475;28;20788;-70
2023/07/18 07:09:07;;;;;;;5.23;2.90;;;24.70;99.90;;;;;;5087257;28;20439;-70
2023/07/18 07:11:34;;;;;;;2.80;2.20;;;25.50;99.90;;;;;;5089546;28;20752;-70
2023/07/18 07:13:59;;;;;;;2.93;2.50;;;25.40;99.90;;;;;;5086284;28;20451;-70
2023/07/18 07:16:25;;;;;;;4.03;1.70;;;25.00;99.90;;;;;;5094811;28;20453;-70
2023/07/18 07:18:50;;;;;;;2.80;2.43;;;25.20;99.90;;;;;;5095571;28;20172;-71
2023/07/18 07:21:16;;;;;;;2.53;2.23;;;25.60;99.90;;;;;;5090738;28;20227;-70
2023/07/18 07:23:41;;;;;;;3.70;2.33;;;26.00;99.90;;;;;;5094979;28;20235;-73
2023/07/18 07:26:08;;;;;;;3.23;2.40;;;24.90;99.90;;;;;;5090330;28;20169;-69
2023/07/18 07:28:35;;;;;;;4.43;2.13;;;24.70;99.90;;;;;;5092723;28;20639;-70
2023/07/18 07:31:03;;;;;;;2.87;1.80;;;25.10;99.90;;;;;;5089472;28;20789;-69
2023/07/18 07:33:29;;;;;;;3.67;2.47;;;26.00;99.90;;;;;;5091805;28;20411;-70
2023/07/18 07:35:54;;;;;;;6.20;2.47;;;25.40;99.90;;;;;;5094382;28;20959;-69
2023/07/18 07:38:20;;;;;;;2.97;1.97;;;25.10;99.90;;;;;;5089411;28;20177;-72
2023/07/18 07:40:45;;;;;;;3.63;2.30;;;25.20;99.90;;;;;;5094514;28;20566;-70
2023/07/18 07:43:11;;;;;;;4.30;2.40;;;26.10;99.90;;;;;;5089905;28;20193;-70
2023/07/18 07:45:36;;;;;;;6.00;3.10;;;25.80;99.90;;;;;;5090609;28;20675;-71
2023/07/18 07:48:02;;;;;;;2.80;2.27;;;25.80;99.90;;;;;;5093516;28;20594;-72
2023/07/18 07:50:28;;;;;;;4.60;2.03;;;27.00;99.90;;;;;;5091922;28;20169;-69
2023/07/18 07:52:53;;;;;;;4.43;3.00;;;27.10;99.90;;;;;;5090295;28;20165;-69
2023/07/18 07:55:19;;;;;;;3.30;2.20;;;26.20;99.90;;;;;;5092921;28;20221;-70
2023/07/18 07:57:45;;;;;;;2.67;2.10;;;26.60;99.90;;;;;;5052559;28;20166;-72
2023/07/18 08:00:11;;;;;;;6.90;2.97;;;26.00;99.90;;;;;;5093737;28;20201;-70
2023/07/18 08:02:36;;;;;;;5.57;3.03;;;26.10;99.90;;;;;;5084461;28;20170;-72
2023/07/18 08:05:03;;;;;;;4.47;2.47;;;27.70;99.60;;;;;;5088294;28;20929;-69
2023/07/18 08:07:29;;;;;;;3.70;2.43;;;28.50;98.30;;;;;;5091280;28;20701;-71
2023/07/18 08:09:55;;;;;;;3.13;2.40;;;27.70;98.50;;;;;;5090172;28;20435;-70
2023/07/18 08:12:21;;;;;;;4.80;3.27;;;27.40;98.20;;;;;;5092625;28;20211;-70
2023/07/18 08:14:48;;;;;;;8.27;5.50;;;26.40;99.90;;;;;;5087030;28;20439;-70
2023/07/18 08:17:14;;;;;;;3.90;3.00;;;27.40;98.80;;;;;;5093583;28;20498;-70
2023/07/18 08:19:40;;;;;;;4.10;2.30;;;27.70;98.50;;;;;;5089881;28;20856;-70
2023/07/18 08:22:05;;;;;;;3.00;2.30;;;28.00;97.80;;;;;;5092338;28;20526;-71
2023/07/18 08:24:31;;;;;;;4.50;2.60;;;28.60;96.10;;;;;;5090715;28;20621;-72
2023/07/18 08:26:57;;;;;;;7.63;3.50;;;26.70;97.80;;;;;;5088905;28;20165;-70
2023/07/18 08:29:33;;;;;;;4.00;1.80;;;26.80;98.10;;;;;;5091768;28;20682;-71
2023/07/18 08:31:59;;;;;;;3.80;2.10;;;27.50;96.90;;;;;;5091491;28;20453;-70
2023/07/18 08:34:25;;;;;;;4.20;2.20;;;27.10;97.00;;;;;;5092784;28;20494;-70
2023/07/18 08:36:51;;;;;;;3.90;2.20;;;28.10;96.40;;;;;;5089436;28;20174;-71
2023/07/18 08:39:17;;;;;;;3.67;2.30;;;27.70;96.70;;;;;;5074136;28;20768;-70
2023/07/18 08:41:44;;;;;;;2.17;1.90;;;26.70;96.60;;;;;;5090407;28;20205;-71
2023/07/18 08:44:13;;;;;;;4.30;2.33;;;26.60;97.50;;;;;;5090050;28;20929;-70
2023/07/18 08:46:42;;;;;;;5.27;2.73;;;26.60;98.10;;;;;;5085841;28;20418;-71
2023/07/18 08:49:10;;;;;;;4.53;2.90;;;25.20;98.30;;;;;;5092930;28;20396;-71
2023/07/18 08:51:36;;;;;;;2.73;1.93;;;26.00;99.00;;;;;;5087472;28;20403;-72
2023/07/18 08:54:02;;;;;;;2.80;2.33;;;25.80;96.70;;;;;;5093186;28;20427;-71
2023/07/18 08:56:28;;;;;;;3.70;2.70;;;25.00;98.10;;;;;;5090139;28;20260;-71
2023/07/18 08:58:55;;;;;;;5.47;2.37;;;25.40;98.70;;;;;;5091361;28;20166;-71
2023/07/18 09:01:21;;;;;;;3.90;2.90;;;26.10;98.50;;;;;;5092756;28;20494;-72
2023/07/18 09:03:46;;;;;;;2.27;1.90;;;26.80;95.60;;;;;;5089581;28;20436;-73
2023/07/18 09:06:19;;;;;;;5.80;2.27;;;27.60;95.10;;;;;;5092904;28;20230;-71
2023/07/18 09:08:45;;;;;;;2.93;1.97;;;27.20;94.50;;;;;;5088439;28;20165;-70
2023/07/18 09:11:14;;;;;;;3.20;2.27;;;27.40;94.50;;;;;;5090868;28;20465;-71
2023/07/18 09:13:42;;;;;;;4.97;2.17;;;27.80;94.30;;;;;;5087378;28;20408;-71
2023/07/18 09:16:12;;;;;;;1.90;1.70;;;27.30;93.40;;;;;;5089543;28;20415;-71
2023/07/18 09:18:38;;;;;;;3.33;2.10;;;27.40;93.10;;;;;;5084664;28;20468;-70
2023/07/18 09:21:09;;;;;;;2.30;1.70;;;26.70;93.70;;;;;;5088726;28;20521;-70
2023/07/18 09:23:42;;;;;;;3.37;1.67;;;26.40;95.00;;;;;;5091493;28;20396;-70
2023/07/18 09:26:17;;;;;;;6.97;4.23;;;27.30;94.40;;;;;;5088310;28;20958;-72
2023/07/18 09:28:43;;;;;;;6.10;2.10;;;27.70;93.70;;;;;;5091559;28;20774;-71
2023/07/18 09:31:23;;;;;;;4.63;2.70;;;28.00;93.00;;;;;;5087431;28;20422;-71
2023/07/18 09:33:50;;;;;;;4.27;2.10;;;28.20;92.30;;;;;;5091742;28;20173;-70
2023/07/18 09:36:24;;;;;;;6.40;2.67;;;28.10;92.10;;;;;;5073584;28;20779;-71
2023/07/18 09:38:51;;;;;;;6.20;4.20;;;27.30;92.40;;;;;;5088962;28;20436;-71
2023/07/18 09:41:18;;;;;;;3.53;1.90;;;26.90;94.40;;;;;;5091164;28;20439;-70
2023/07/18 09:43:45;;;;;;;4.13;2.60;;;28.00;91.90;;;;;;5089881;28;20413;-70
2023/07/18 09:46:15;;;;;;;4.17;2.10;;;27.00;94.10;;;;;;5088254;28;20429;-72
2023/07/18 09:48:43;;;;;;;9.90;1.90;;;26.50;93.40;;;;;;5084377;28;20987;-71
2023/07/18 09:51:13;;;;;;;6.40;2.13;;;26.30;92.90;;;;;;5087655;28;20419;-69
2023/07/18 09:53:40;;;;;;;2.40;1.83;;;26.60;92.50;;;;;;5083810;28;20473;-70
2023/07/18 09:56:07;;;;;;;2.27;2.00;;;27.20;91.60;;;;;;5086470;28;20412;-70
2023/07/18 09:58:38;;;;;;;3.20;1.53;;;26.20;93.20;;;;;;5088891;28;20485;-69
2023/07/18 10:01:08;;;;;;;2.60;2.00;;;25.70;92.00;;;;;;5091566;28;20554;-70
2023/07/18 10:03:34;;;;;;;4.07;1.80;;;25.70;93.00;;;;;;5087898;28;20400;-70
2023/07/18 10:06:00;;;;;;;4.23;2.47;;;26.60;92.10;;;;;;5091560;28;20933;-70
2023/07/18 10:08:25;;;;;;;3.63;1.90;;;25.60;92.60;;;;;;5086839;28;20461;-69
2023/07/18 10:11:02;;;;;;;3.20;2.30;;;25.30;93.20;;;;;;5089829;28;20177;-71
2023/07/18 10:13:29;;;;;;;5.90;2.50;;;26.50;92.10;;;;;;5086328;28;20193;-69
2023/07/18 10:16:21;;;;;;;3.30;1.47;;;26.40;91.60;;;;;;5071031;28;20411;-71
2023/07/18 10:18:52;;;;;;;1.80;1.47;;;26.00;91.70;;;;;;5081809;28;20775;-70
2023/07/18 10:21:29;;;;;;;4.40;1.60;;;25.80;92.10;;;;;;5083076;28;20490;-70
2023/07/18 10:23:55;;;;;;;5.27;2.27;;;25.40;91.60;;;;;;5085540;28;20405;-69
2023/07/18 10:26:30;;;;;;;4.03;1.60;;;24.90;92.30;;;;;;5085300;28;20492;-70
2023/07/18 10:29:00;;;;;;;3.27;1.90;;;25.20;93.10;;;;;;5085606;28;20185;-70
2023/07/18 10:31:28;;;;;;;3.70;1.70;;;24.80;92.40;;;;;;5083998;28;20769;-70
2023/07/18 10:34:11;;;;;;;5.10;2.80;;;25.60;93.30;;;;;;5090318;28;20414;-71
2023/07/18 10:36:38;;;;;;;4.60;2.40;;;25.10;92.50;;;;;;5081587;28;20420;-70
2023/07/18 10:39:08;;;;;;;4.40;1.80;;;24.50;92.90;;;;;;5086788;28;20858;-71
2023/07/18 10:41:35;;;;;;;2.90;1.97;;;24.20;93.40;;;;;;5087876;28;20454;-71
2023/07/18 10:44:01;;;;;;;4.93;2.43;;;24.30;92.70;;;;;;5090124;28;20427;-70
2023/07/18 10:46:36;;;;;;;3.77;1.87;;;24.30;93.50;;;;;;5087977;28;20403;-70
2023/07/18 10:49:03;;;;;;;3.30;3.00;;;24.60;92.60;;;;;;5073496;28;20163;-70
2023/07/18 10:51:35;;;;;;;2.60;1.63;;;25.40;92.30;;;;;;5090958;28;20417;-70
2023/07/18 10:54:01;;;;;;;3.43;1.90;;;25.40;91.60;;;;;;5093328;28;20482;-70
2023/07/18 10:56:27;;;;;;;5.30;4.07;;;25.60;92.00;;;;;;5089930;28;20776;-71
2023/07/18 10:58:55;;;;;;;2.80;2.50;;;25.90;91.60;;;;;;5092368;28;20216;-72
2023/07/18 11:01:27;;;;;;;3.20;2.47;;;26.10;91.00;;;;;;5094808;28;20524;-69
2023/07/18 11:03:53;;;;;;;2.23;1.57;;;26.40;90.30;;;;;;5070187;28;20464;-69
2023/07/18 11:06:21;;;;;;;1.90;1.63;;;26.30;90.30;;;;;;5094946;28;20416;-70
2023/07/18 11:08:47;;;;;;;3.90;2.40;;;25.80;90.20;;;;;;5090425;28;20402;-70
2023/07/18 11:11:15;;;;;;;2.07;1.70;;;25.50;90.80;;;;;;5093155;28;20417;-71
2023/07/18 11:13:44;;;;;;;3.50;2.20;;;25.90;90.80;;;;;;5089895;28;20924;-70
2023/07/18 11:18:40;;;;;;;2.20;1.97;;;26.70;88.70;;;;;;5030702;28;20473;-66
2023/07/18 11:21:07;;;;;;;3.53;2.17;;;26.20;88.60;;;;;;5032514;28;20458;-69
2023/07/18 11:23:35;;;;;;;4.80;2.17;;;25.70;89.60;;;;;;5034484;28;20400;-67
2023/07/18 11:26:12;;;;;;;12.77;3.77;;;25.80;89.60;;;;;;5034019;28;20896;-67
2023/07/18 11:28:39;;;;;;;21.20;5.10;;;25.20;90.40;;;;;;5009431;28;20418;-66
2023/07/18 11:31:05;;;;;;;27.37;5.53;;;25.80;90.70;;;;;;5014453;28;20526;-66
2023/07/18 11:33:34;;;;;;;5.50;1.80;;;26.50;88.90;;;;;;5013983;28;20425;-66
2023/07/18 11:36:01;;;;;;;4.93;1.73;;;26.60;88.00;;;;;;5013734;28;20505;-67
2023/07/18 11:38:29;;;;;;;2.13;1.67;;;26.70;86.80;;;;;;5014406;28;20460;-67
2023/07/18 11:40:55;;;;;;;6.40;2.00;;;26.30;87.00;;;;;;4999793;28;20959;-66
2023/07/18 11:43:20;;;;;;;5.40;4.33;;;26.20;87.10;;;;;;5014331;28;20412;-67
2023/07/18 11:45:47;;;;;;;3.40;1.90;;;25.40;89.50;;;;;;5014140;28;20221;-67
2023/07/18 11:48:13;;;;;;;4.03;2.07;;;25.50;89.50;;;;;;5013888;28;20207;-67
2023/07/18 11:50:43;;;;;;;3.60;2.10;;;25.00;89.80;;;;;;5013717;28;20474;-66
2023/07/18 11:53:08;;;;;;;6.50;2.10;;;25.10;89.50;;;;;;5010269;28;20423;-66
2023/07/18 11:55:34;;;;;;;2.50;1.60;;;25.20;90.30;;;;;;5011899;28;20471;-66
2023/07/18 11:58:00;;;;;;;5.23;4.73;;;25.10;89.30;;;;;;5013661;28;20207;-67
2023/07/18 12:00:25;;;;;;;9.70;3.17;;;24.90;90.30;;;;;;5012818;28;20192;-66
2023/07/18 12:02:52;;;;;;;21.60;3.40;;;25.40;89.10;;;;;;5013300;28;20685;-67
2023/07/18 12:05:17;;;;;;;2.73;1.87;;;25.60;89.70;;;;;;5013661;28;20210;-67
2023/07/18 12:07:44;;;;;;;4.07;2.77;;;26.10;88.80;;;;;;5013685;28;20522;-66
2023/07/18 12:10:10;;;;;;;2.77;1.67;;;26.00;86.80;;;;;;5010209;28;20305;-66
2023/07/18 12:12:38;;;;;;;2.60;1.67;;;26.00;87.10;;;;;;5005634;28;20511;-67
2023/07/18 12:15:05;;;;;;;2.00;1.70;;;25.80;86.30;;;;;;5013308;28;20549;-70
2023/07/18 12:17:31;;;;;;;4.13;2.07;;;26.20;87.10;;;;;;5002233;28;20473;-66
2023/07/18 12:19:56;;;;;;;4.10;2.13;;;26.20;86.10;;;;;;4993482;28;20459;-64
2023/07/18 12:22:22;;;;;;;6.30;5.50;;;26.50;86.00;;;;;;4993969;28;20180;-67
2023/07/18 12:24:48;;;;;;;2.80;1.80;;;26.60;86.80;;;;;;4993697;28;20187;-65
2023/07/18 12:27:15;;;;;;;5.47;2.00;;;26.20;86.00;;;;;;4993614;28;20206;-66
2023/07/18 12:29:42;;;;;;;2.23;1.60;;;26.10;86.00;;;;;;4993516;28;20583;-66
2023/07/18 12:32:09;;;;;;;3.10;1.47;;;25.70;86.50;;;;;;4993358;28;21061;-66
2023/07/18 12:34:39;;;;;;;3.80;2.93;;;25.90;86.70;;;;;;4993468;28;20412;-66
2023/07/18 12:37:05;;;;;;;2.90;1.90;;;26.50;86.50;;;;;;4993361;28;20444;-66
2023/07/18 12:39:31;;;;;;;1.77;1.67;;;26.60;84.60;;;;;;4993768;28;20436;-66
2023/07/18 12:41:57;;;;;;;3.97;1.90;;;26.10;85.60;;;;;;4993420;28;20211;-66
2023/07/18 12:44:40;;;;;;;3.50;1.70;;;25.80;85.60;;;;;;4993210;28;20183;-66
2023/07/18 12:47:06;;;;;;;2.43;1.50;;;24.80;87.10;;;;;;4992836;28;20436;-66